12XS weather

Mc Croskey Field
Butlerville, Arkansas, United States

Public forecast

Using degrees Fahrenheit for public forecast. Weather courtesy of forecast.io.

Closest aviation weather report (METAR) to Mc Croskey Field

Closest report is Little Rock Air Force Base, 15.5 nm (28.8 km) W. Retrieved 2020/01/24 03:56 UTC (43 minutes ago):

KLRF 240356Z 00000KT 10SM CLR 01/01 A2994 RMK SLP144 T00090006

Closest aviation forecast (TAF) to Mc Croskey Field

Closest forecast is Little Rock Air Force Base, 15.5 nm (28.8 km) W. Retrieved 2020-01-24 23:06 UTC (0 seconds ago):

TAF KLRF 232300Z 2323/2505 VRB06KT 9999 OVC008 620089 QNH2992INS BECMG 2404/2405 VRB06KT 9999 OVC015 620159 QNH2989INS BECMG 2415/2416 28012G18KT 9999 BKN030 QNH3000INS BECMG 2419/2420 29015G20KT 9999 BKN030 QNH3000INS BECMG 2423/2424 28009KT 9999 BKN020 QNH3003INS TX07/2420Z TN03/2412Z